Time;durP1;ratioP1;P1;durP2;ratioP2;P2;SDS_P1;SDS_P2;PMS_P1;PMS_P2;Temp;Humidity;BMP_temperature;BMP_pressure;BME280_temperature;BME280_humidity;BME280_pressure;Samples;Min_cycle;Max_cycle;Signal;HPM_P1;HPM_P2
2022/03/08 00:00:43;;;;;;;27.23;18.30;;;;;;;-4.46;100.00;96835.03;5012068;28;101773;-65
2022/03/08 00:03:10;;;;;;;23.43;17.23;;;;;;;-4.52;100.00;96853.81;5027765;28;105005;-65
2022/03/08 00:05:39;;;;;;;24.17;16.47;;;;;;;-4.47;100.00;96852.38;5027133;28;105463;-65
2022/03/08 00:08:30;;;;;;;23.77;17.00;;;;;;;-4.17;100.00;96859.00;5030955;28;103352;-65
2022/03/08 00:11:03;;;;;;;26.00;18.47;;;;;;;-4.06;100.00;96857.00;5026528;28;105258;-65
2022/03/08 00:13:30;;;;;;;22.67;16.40;;;;;;;-4.02;100.00;96860.94;5027791;28;101869;-65
2022/03/08 00:15:57;;;;;;;27.07;17.93;;;;;;;-4.19;100.00;96859.16;5028575;28;102851;-64
2022/03/08 00:18:28;;;;;;;24.57;16.97;;;;;;;-4.31;100.00;96859.53;5027027;28;104249;-64
2022/03/08 00:20:55;;;;;;;25.57;17.73;;;;;;;-4.33;100.00;96859.69;5029068;28;101711;-64
2022/03/08 00:23:22;;;;;;;22.90;16.00;;;;;;;-4.01;100.00;96854.78;5026815;28;104938;-64
2022/03/08 00:25:50;;;;;;;21.73;15.77;;;;;;;-3.79;100.00;96851.72;5026500;28;105391;-65
2022/03/08 00:28:22;;;;;;;26.07;17.50;;;;;;;-3.55;100.00;96851.88;5030720;28;101887;-65
2022/03/08 00:30:49;;;;;;;21.23;16.53;;;;;;;-3.44;100.00;96848.22;5026126;28;105361;-64
2022/03/08 00:33:17;;;;;;;24.27;16.87;;;;;;;-3.30;100.00;96840.66;5027000;28;101867;-64
2022/03/08 00:35:44;;;;;;;24.20;16.00;;;;;;;-3.40;100.00;96829.56;5027251;28;104770;-65
2022/03/08 00:38:37;;;;;;;22.43;16.87;;;;;;;-3.67;100.00;96832.31;5026436;28;105374;-65
2022/03/08 00:41:06;;;;;;;23.23;16.90;;;;;;;-3.56;100.00;96834.66;5027148;28;101862;-65
2022/03/08 00:43:33;;;;;;;24.40;16.67;;;;;;;-3.79;100.00;96830.09;5027249;28;104062;-64
2022/03/08 00:46:00;;;;;;;21.87;16.50;;;;;;;-3.99;100.00;96833.88;5026440;28;105612;-65
2022/03/08 00:49:05;;;;;;;23.97;17.00;;;;;;;-4.26;100.00;96826.97;5027066;28;101952;-65
2022/03/08 00:51:33;;;;;;;24.97;16.63;;;;;;;-3.97;100.00;96830.16;5029455;28;105793;-64
2022/03/08 00:53:59;;;;;;;22.57;16.23;;;;;;;-3.86;100.00;96831.69;5028721;28;101820;-65
2022/03/08 00:56:28;;;;;;;23.30;16.30;;;;;;;-3.83;100.00;96827.00;5026501;28;105187;-64
2022/03/08 00:58:58;;;;;;;23.40;15.80;;;;;;;-3.90;100.00;96813.00;5026555;28;105193;-64
2022/03/08 01:01:25;;;;;;;23.67;16.27;;;;;;;-3.73;100.00;96814.72;5027123;27;101851;-64
2022/03/08 01:03:52;;;;;;;25.60;17.47;;;;;;;-3.81;100.00;96813.84;5029821;28;105642;-64
2022/03/08 01:06:19;;;;;;;24.20;17.17;;;;;;;-4.11;100.00;96815.09;5028927;28;104928;-64
2022/03/08 01:08:51;;;;;;;21.97;15.90;;;;;;;-3.99;100.00;96806.09;5019274;28;101927;-65
2022/03/08 01:11:56;;;;;;;25.03;16.80;;;;;;;-3.86;100.00;96806.53;5030099;28;104907;-65
2022/03/08 01:14:23;;;;;;;24.37;16.90;;;;;;;-4.11;100.00;96807.28;5032667;28;105029;-64
2022/03/08 01:16:52;;;;;;;22.67;16.13;;;;;;;-4.10;100.00;96803.72;5029740;28;105686;-64
2022/03/08 01:22:41;;;;;;;22.53;15.77;;;;;;;-4.36;100.00;96797.66;5053039;27;101877;-65
2022/03/08 01:25:09;;;;;;;24.70;17.63;;;;;;;-4.51;100.00;96787.97;5030207;28;104895;-64
2022/03/08 01:28:07;;;;;;;21.37;15.63;;;;;;;-4.27;100.00;96795.97;5030238;28;103159;-65
2022/03/08 01:30:35;;;;;;;22.23;15.47;;;;;;;-4.18;100.00;96795.91;5029676;28;101908;-64
2022/03/08 01:33:02;;;;;;;25.17;17.03;;;;;;;-4.16;100.00;96795.75;5029688;28;105234;-64
2022/03/08 01:35:30;;;;;;;22.73;17.43;;;;;;;-4.32;100.00;96793.81;5029641;28;105272;-64
2022/03/08 01:38:16;;;;;;;28.57;16.27;;;;;;;-4.57;100.00;96789.38;5022573;28;101942;-65
2022/03/08 01:41:08;;;;;;;25.97;16.50;;;;;;;-4.51;100.00;96799.16;5026012;28;105106;-64
2022/03/08 01:43:37;;;;;;;23.80;16.50;;;;;;;-4.50;100.00;96800.78;5030952;28;101857;-64
2022/03/08 01:46:04;;;;;;;24.53;16.97;;;;;;;-4.45;100.00;96798.56;5031046;28;102641;-65
2022/03/08 01:48:41;;;;;;;26.17;17.67;;;;;;;-4.50;100.00;96798.19;5028781;28;104326;-65
2022/03/08 01:51:09;;;;;;;26.87;17.30;;;;;;;-4.71;100.00;96789.88;5029516;28;101952;-64
2022/03/08 01:53:40;;;;;;;24.03;17.50;;;;;;;-4.81;100.00;96785.72;5029610;28;104412;-64
2022/03/08 01:56:08;;;;;;;24.77;17.60;;;;;;;-4.63;100.00;96784.75;5029024;28;104077;-64
2022/03/08 01:59:16;;;;;;;25.97;17.40;;;;;;;-4.85;100.00;96787.78;5029584;28;101954;-65
2022/03/08 02:01:44;;;;;;;27.23;17.97;;;;;;;-4.96;100.00;96787.97;5032304;28;105215;-64
2022/03/08 02:04:12;;;;;;;23.33;17.30;;;;;;;-4.81;100.00;96786.53;5030479;28;101784;-65
2022/03/08 02:06:39;;;;;;;24.53;17.47;;;;;;;-4.69;100.00;96793.13;5030411;28;102385;-64
2022/03/08 02:09:08;;;;;;;27.73;17.40;;;;;;;-4.62;100.00;96785.59;5028935;28;104243;-64
2022/03/08 02:11:57;;;;;;;29.83;19.47;;;;;;;-4.66;100.00;96782.47;5029206;28;102169;-64
2022/03/08 02:14:24;;;;;;;28.47;18.50;;;;;;;-4.78;100.00;96781.06;5028896;28;105061;-64
2022/03/08 02:16:53;;;;;;;26.60;18.03;;;;;;;-4.69;100.00;96772.38;5028494;28;103881;-65
2022/03/08 02:20:02;;;;;;;27.17;18.70;;;;;;;-4.66;100.00;96772.09;5029249;28;102059;-64
2022/03/08 02:22:31;;;;;;;24.97;17.33;;;;;;;-4.74;100.00;96774.59;5028923;28;105724;-64
2022/03/08 02:24:58;;;;;;;26.87;18.10;;;;;;;-4.73;100.00;96772.84;5031677;28;102284;-65
2022/03/08 02:27:25;;;;;;;26.30;17.60;;;;;;;-4.74;100.00;96768.63;5028645;28;103696;-64
2022/03/08 02:29:52;;;;;;;26.40;17.43;;;;;;;-5.03;100.00;96762.81;5028760;28;105928;-64
2022/03/08 02:32:19;;;;;;;25.37;17.03;;;;;;;-5.07;100.00;96759.66;5028913;28;101869;-64
2022/03/08 02:34:45;;;;;;;24.37;16.57;;;;;;;-5.26;100.00;96752.00;5028675;28;105256;-64
2022/03/08 02:37:12;;;;;;;23.90;17.27;;;;;;;-5.33;100.00;96753.56;5028071;28;105017;-64
2022/03/08 02:40:06;;;;;;;28.50;17.60;;;;;;;-5.19;100.00;96750.47;5028604;28;101912;-64
2022/03/08 02:42:35;;;;;;;24.63;17.23;;;;;;;-5.20;100.00;96748.84;5028790;28;104953;-64
2022/03/08 02:45:04;;;;;;;27.33;17.33;;;;;;;-5.15;100.00;96735.44;5033291;28;102693;-64
2022/03/08 02:47:31;;;;;;;24.87;17.37;;;;;;;-5.27;100.00;96744.38;5028519;28;105101;-64
2022/03/08 02:49:58;;;;;;;25.70;17.37;;;;;;;-5.29;100.00;96741.13;5028524;28;105849;-64
2022/03/08 02:52:26;;;;;;;26.67;17.40;;;;;;;-5.33;100.00;96743.19;5027993;28;102057;-64
2022/03/08 02:54:53;;;;;;;25.67;17.03;;;;;;;-5.35;100.00;96739.91;5028594;28;104139;-64
2022/03/08 02:57:22;;;;;;;26.87;17.33;;;;;;;-5.27;100.00;96736.59;5028026;28;105314;-64
2022/03/08 02:59:49;;;;;;;27.33;17.73;;;;;;;-5.44;100.00;96730.44;5028639;28;102049;-64
2022/03/08 03:02:16;;;;;;;29.10;17.53;;;;;;;-5.32;100.00;96734.47;5028229;28;105583;-65
2022/03/08 03:04:43;;;;;;;28.53;18.47;;;;;;;-5.48;100.00;96725.66;5026999;28;105018;-64
2022/03/08 03:07:10;;;;;;;26.27;17.37;;;;;;;-5.38;100.00;96727.25;5032035;28;101945;-64
2022/03/08 03:09:46;;;;;;;29.87;18.90;;;;;;;-5.40;100.00;96730.97;5027349;28;105386;-65
2022/03/08 03:12:13;;;;;;;27.27;18.33;;;;;;;-5.30;100.00;96724.75;5029322;28;102003;-64
2022/03/08 03:14:42;;;;;;;25.87;17.67;;;;;;;-5.52;100.00;96726.94;5030085;28;102881;-64
2022/03/08 03:17:09;;;;;;;26.77;18.37;;;;;;;-5.39;100.00;96728.22;5029201;28;102520;-64
2022/03/08 03:19:40;;;;;;;26.60;18.33;;;;;;;-5.59;100.00;96731.88;5028399;28;102056;-64
2022/03/08 03:22:07;;;;;;;29.60;19.77;;;;;;;-5.42;100.00;96728.50;5029801;28;102394;-64
2022/03/08 03:24:34;;;;;;;26.40;17.57;;;;;;;-5.43;100.00;96724.28;5027077;28;105647;-64
2022/03/08 03:27:01;;;;;;;27.47;18.23;;;;;;;-5.56;100.00;96721.19;5029824;28;101934;-64
2022/03/08 03:29:39;;;;;;;27.40;17.90;;;;;;;-5.33;100.00;96722.47;5032603;28;102437;-64
2022/03/08 03:32:08;;;;;;;25.43;18.07;;;;;;;-5.25;100.00;96724.34;5027846;28;102029;-65
2022/03/08 03:34:35;;;;;;;25.53;18.07;;;;;;;-5.32;100.00;96726.69;5028157;28;105534;-64
2022/03/08 03:37:03;;;;;;;26.07;18.33;;;;;;;-5.30;100.00;96732.53;5029155;28;102610;-64
2022/03/08 03:39:48;;;;;;;26.57;18.00;;;;;;;-5.05;100.00;96737.03;5029761;27;101787;-64
2022/03/08 03:42:27;;;;;;;26.30;17.73;;;;;;;-5.00;100.00;96732.22;5028174;28;105547;-65
2022/03/08 03:44:54;;;;;;;25.27;16.83;;;;;;;-5.10;100.00;96728.88;5027544;28;105763;-64
2022/03/08 03:47:22;;;;;;;25.23;17.50;;;;;;;-5.07;100.00;96732.94;5029542;28;101814;-65
2022/03/08 03:49:49;;;;;;;28.93;18.50;;;;;;;-4.99;100.00;96726.06;5029382;28;102857;-64
2022/03/08 03:52:16;;;;;;;30.20;18.33;;;;;;;-5.01;100.00;96728.00;5032100;28;102673;-65
2022/03/08 03:54:43;;;;;;;29.13;19.23;;;;;;;-4.96;100.00;96727.56;5029533;27;102772;-65
2022/03/08 03:57:11;;;;;;;27.17;17.30;;;;;;;-5.21;100.00;96723.06;5027413;28;105324;-64
2022/03/08 03:59:47;;;;;;;26.33;17.57;;;;;;;-5.40;100.00;96711.03;5029451;28;101794;-64
2022/03/08 04:02:14;;;;;;;25.50;17.27;;;;;;;-5.53;100.00;96720.09;5029542;28;102364;-64
2022/03/08 04:04:42;;;;;;;27.20;17.40;;;;;;;-5.41;100.00;96714.59;5028656;28;103440;-64
2022/03/08 04:07:09;;;;;;;26.63;17.27;;;;;;;-5.57;100.00;96714.41;5027849;28;101855;-64
2022/03/08 04:09:42;;;;;;;26.23;17.13;;;;;;;-5.49;100.00;96717.09;5027906;28;105222;-64
2022/03/08 04:12:10;;;;;;;26.33;16.37;;;;;;;-5.55;100.00;96712.50;5028852;28;102659;-64
2022/03/08 04:14:37;;;;;;;24.07;16.30;;;;;;;-5.82;100.00;96719.44;5032905;28;101788;-64
2022/03/08 04:17:04;;;;;;;27.73;17.70;;;;;;;-5.99;100.00;96721.03;5027295;28;104071;-64
2022/03/08 04:22:55;;;;;;;26.70;17.30;;;;;;;-5.72;100.00;96735.75;5027551;28;103240;-64
2022/03/08 04:25:22;;;;;;;24.47;17.03;;;;;;;-5.62;100.00;96734.72;5061091;27;105553;-64
2022/03/08 04:28:01;;;;;;;26.97;17.27;;;;;;;-5.77;100.00;96731.00;5027654;28;101917;-64
2022/03/08 04:30:28;;;;;;;24.60;16.47;;;;;;;-5.89;100.00;96732.13;5027639;28;105010;-64
2022/03/08 04:32:55;;;;;;;22.90;15.37;;;;;;;-6.02;100.00;96739.41;5026926;28;104943;-64
2022/03/08 04:35:22;;;;;;;33.03;17.23;;;;;;;-5.93;100.00;96733.41;5031079;27;101955;-64
2022/03/08 04:37:57;;;;;;;26.87;17.23;;;;;;;-5.94;100.00;96736.13;5030540;28;105400;-64
2022/03/08 04:40:25;;;;;;;29.87;17.80;;;;;;;-5.94;100.00;96736.13;5031043;28;101782;-64
2022/03/08 04:43:06;;;;;;;26.93;16.63;;;;;;;-5.98;100.00;96734.75;5030949;28;105286;-64
2022/03/08 04:45:33;;;;;;;28.23;17.77;;;;;;;-5.90;100.00;96738.28;5030415;28;105574;-65
2022/03/08 04:48:32;;;;;;;29.63;18.57;;;;;;;-5.61;100.00;96743.31;5030737;28;101856;-64
2022/03/08 04:50:59;;;;;;;28.23;17.87;;;;;;;-5.47;100.00;96735.88;5030812;28;105576;-64
2022/03/08 04:53:29;;;;;;;28.53;19.37;;;;;;;-5.53;100.00;96741.66;5031415;28;102823;-65
2022/03/08 04:55:56;;;;;;;29.53;18.80;;;;;;;-5.53;100.00;96733.88;5030750;28;102008;-65
2022/03/08 04:58:30;;;;;;;27.53;18.57;;;;;;;-5.41;100.00;96735.31;5033583;28;105153;-65
2022/03/08 05:00:57;;;;;;;29.33;18.63;;;;;;;-5.28;100.00;96742.75;5030619;28;101798;-64
2022/03/08 05:03:24;;;;;;;27.60;18.93;;;;;;;-5.20;100.00;96741.06;5030542;28;103982;-64
2022/03/08 05:05:52;;;;;;;27.37;18.53;;;;;;;-5.48;100.00;96741.22;5029879;28;105518;-64
2022/03/08 05:12:11;;;;;;;29.47;17.83;;;;;;;-5.42;100.00;96738.88;5030598;28;105301;-64
2022/03/08 05:14:39;;;;;;;26.20;18.00;;;;;;;-5.42;100.00;96738.88;5031450;28;102801;-65
2022/03/08 05:17:05;;;;;;;28.07;17.10;;;;;;;-5.53;100.00;96735.63;5030283;28;102127;-64
2022/03/08 05:19:35;;;;;;;27.70;18.37;;;;;;;-5.45;100.00;96735.75;5030298;28;105674;-65
2022/03/08 05:22:02;;;;;;;26.30;16.60;;;;;;;-5.58;100.00;96743.03;5033210;28;105862;-64
2022/03/08 05:24:29;;;;;;;28.87;19.27;;;;;;;-5.44;100.00;96745.97;5030414;28;105226;-64
2022/03/08 05:26:56;;;;;;;28.77;18.50;;;;;;;-5.41;100.00;96742.28;5029712;28;105299;-64
2022/03/08 05:29:42;;;;;;;25.67;18.00;;;;;;;-5.44;100.00;96745.16;5030245;28;101944;-64
2022/03/08 05:32:10;;;;;;;27.10;17.93;;;;;;;-5.39;100.00;96741.19;5029834;28;105126;-64
2022/03/08 05:34:37;;;;;;;29.87;18.50;;;;;;;-5.39;100.00;96741.19;5029489;28;104120;-65
2022/03/08 05:37:04;;;;;;;32.17;19.93;;;;;;;-5.51;100.00;96742.31;5030188;28;101960;-64
2022/03/08 05:39:34;;;;;;;31.87;19.63;;;;;;;-5.38;100.00;96741.97;5030130;28;105357;-65
2022/03/08 05:42:12;;;;;;;27.53;18.17;;;;;;;-5.30;100.00;96729.94;5029382;28;105058;-65
2022/03/08 05:44:39;;;;;;;29.33;19.53;;;;;;;-5.27;100.00;96734.84;5033370;28;101840;-65
2022/03/08 05:47:08;;;;;;;32.80;19.80;;;;;;;-5.16;100.00;96737.22;5028940;27;105643;-64
2022/03/08 05:49:41;;;;;;;28.40;19.23;;;;;;;-5.37;100.00;96735.84;5029663;28;101968;-64
2022/03/08 05:52:09;;;;;;;29.63;19.57;;;;;;;-5.32;100.00;96739.63;5029411;28;105864;-64
2022/03/08 05:54:36;;;;;;;32.60;19.63;;;;;;;-5.37;100.00;96734.06;5029276;28;105416;-64
2022/03/08 05:57:04;;;;;;;32.27;19.80;;;;;;;-5.28;100.00;96729.78;5028693;28;101919;-64
2022/03/08 05:59:39;;;;;;;29.90;19.43;;;;;;;-5.28;100.00;96740.16;5028984;28;105117;-63
2022/03/08 06:02:06;;;;;;;27.43;18.10;;;;;;;-5.34;100.00;96746.72;5027500;28;105810;-64
2022/03/08 06:04:35;;;;;;;28.53;18.57;;;;;;;-5.10;100.00;96744.41;5029711;28;101858;-64
2022/03/08 06:07:02;;;;;;;30.13;19.17;;;;;;;-4.88;100.00;96749.19;5032488;28;105544;-64
2022/03/08 06:10:15;;;;;;;30.57;19.70;;;;;;;-4.87;100.00;96757.75;5029339;28;101885;-64
2022/03/08 06:12:53;;;;;;;35.07;19.07;;;;;;;-4.91;100.00;96748.66;5029257;28;105312;-64
2022/03/08 06:15:21;;;;;;;32.53;18.53;;;;;;;-4.61;100.00;96746.53;5028914;28;103868;-64
2022/03/08 06:17:55;;;;;;;32.93;20.07;;;;;;;-4.62;100.00;96744.91;5029369;28;101848;-64
2022/03/08 06:20:24;;;;;;;34.07;20.63;;;;;;;-4.47;100.00;96751.19;5030951;28;102560;-64
2022/03/08 06:22:51;;;;;;;31.93;21.07;;;;;;;-4.54;100.00;96752.75;5028535;28;105092;-64
2022/03/08 06:25:18;;;;;;;34.50;22.17;;;;;;;-4.47;100.00;96742.59;5029255;28;101762;-64
2022/03/08 06:28:03;;;;;;;35.80;21.87;;;;;;;-4.35;100.00;96747.41;5030511;27;102468;-65
2022/03/08 06:30:31;;;;;;;37.60;22.93;;;;;;;-4.08;100.00;96752.47;5033756;27;102696;-64
2022/03/08 06:32:58;;;;;;;38.23;21.40;;;;;;;-3.79;100.00;96759.94;5029152;28;104064;-64
2022/03/08 06:35:27;;;;;;;36.83;21.70;;;;;;;-3.65;100.00;96752.41;5028554;28;105642;-64
2022/03/08 06:38:08;;;;;;;33.13;20.73;;;;;;;-3.55;100.00;96750.50;5030274;28;101936;-64
2022/03/08 06:40:35;;;;;;;37.97;23.13;;;;;;;-3.60;100.00;96749.34;5030519;28;102749;-65
2022/03/08 06:43:02;;;;;;;35.53;21.47;;;;;;;-3.67;100.00;96746.56;5028458;28;105412;-64
2022/03/08 06:45:30;;;;;;;36.90;23.40;;;;;;;-3.57;100.00;96738.63;5028161;28;102090;-64
2022/03/08 06:47:57;;;;;;;32.57;22.47;;;;;;;-3.57;100.00;96746.44;5028323;28;105127;-64
2022/03/08 06:50:24;;;;;;;31.07;22.23;;;;;;;-3.54;100.00;96748.72;5033284;27;102647;-64
2022/03/08 06:52:52;;;;;;;34.83;20.57;;;;;;;-3.46;100.00;96739.19;5028090;28;105688;-64
2022/03/08 06:55:19;;;;;;;27.67;18.80;;;;;;;-3.39;100.00;96740.19;5029375;28;102642;-64
2022/03/08 06:57:46;;;;;;;27.67;18.97;;;;;;;-3.31;100.00;96747.22;5029319;27;101865;-64
2022/03/08 07:00:14;;;;;;;29.67;19.47;;;;;;;-3.19;100.00;96741.56;5028661;27;102275;-64
2022/03/08 07:02:41;;;;;;;36.97;24.00;;;;;;;-3.02;100.00;96745.84;5028763;28;103159;-64
2022/03/08 07:05:10;;;;;;;67.73;36.70;;;;;;;-2.78;100.00;96732.09;5028841;28;101904;-64
2022/03/08 07:07:56;;;;;;;45.63;28.97;;;;;;;-2.60;100.00;96735.38;5029503;28;102478;-64
2022/03/08 07:10:23;;;;;;;39.33;23.60;;;;;;;-2.45;100.00;96744.19;5029425;27;104143;-64
2022/03/08 07:12:52;;;;;;;32.77;20.43;;;;;;;-2.23;100.00;96739.16;5032824;27;102018;-64
2022/03/08 07:15:19;;;;;;;33.20;19.50;;;;;;;-1.71;100.00;96737.78;5021775;28;105527;-64
2022/03/08 07:17:46;;;;;;;28.63;18.70;;;;;;;-1.37;100.00;96740.94;5029930;28;101864;-64
2022/03/08 07:20:14;;;;;;;26.47;16.80;;;;;;;-1.15;100.00;96745.41;5029992;27;102786;-64
2022/03/08 07:22:41;;;;;;;26.73;17.43;;;;;;;-0.86;100.00;96743.00;5028689;27;102851;-64
2022/03/08 07:25:12;;;;;;;20.37;14.80;;;;;;;-0.56;100.00;96739.53;5029623;28;101792;-64
2022/03/08 07:27:40;;;;;;;20.07;14.30;;;;;;;-0.20;100.00;96740.59;5029758;28;102390;-64
2022/03/08 07:30:09;;;;;;;19.83;14.17;;;;;;;-0.28;100.00;96738.88;5027326;28;105719;-64
2022/03/08 07:32:37;;;;;;;20.90;14.23;;;;;;;-0.23;100.00;96746.16;5028654;27;102028;-65
2022/03/08 07:35:05;;;;;;;22.80;14.87;;;;;;;-0.11;100.00;96744.75;5032641;27;102462;-64
2022/03/08 07:37:50;;;;;;;16.93;12.67;;;;;;;0.16;100.00;96749.44;5029142;27;102070;-64
2022/03/08 07:40:19;;;;;;;19.47;14.43;;;;;;;0.52;100.00;96747.78;5027897;28;105131;-65
2022/03/08 07:42:55;;;;;;;16.77;12.00;;;;;;;0.42;100.00;96744.59;5028559;27;102549;-65
2022/03/08 07:45:22;;;;;;;18.07;12.87;;;;;;;0.64;100.00;96754.19;5029345;28;102308;-64
2022/03/08 07:47:54;;;;;;;24.20;15.67;;;;;;;0.67;100.00;96753.84;5027929;28;105211;-65
2022/03/08 07:50:25;;;;;;;55.07;25.00;;;;;;;0.83;100.00;96753.66;5028880;27;103077;-65
2022/03/08 07:52:52;;;;;;;20.10;14.27;;;;;;;0.70;100.00;96745.63;5029263;27;101874;-65
2022/03/08 07:55:21;;;;;;;21.07;15.40;;;;;;;0.93;100.00;96752.38;5027180;28;105804;-65
2022/03/08 07:57:48;;;;;;;18.50;14.67;;;;;;;0.96;100.00;96741.56;5030561;28;105712;-65
2022/03/08 08:00:16;;;;;;;19.43;14.03;;;;;;;1.01;100.00;96754.09;5028972;27;102866;-65
2022/03/08 08:02:42;;;;;;;18.43;14.17;;;;;;;1.14;100.00;96746.38;5028396;28;102597;-65
2022/03/08 08:05:10;;;;;;;21.23;15.47;;;;;;;1.47;100.00;96744.94;5029100;27;101903;-65
2022/03/08 08:07:37;;;;;;;18.10;14.20;;;;;;;1.55;100.00;96745.69;5027715;28;106350;-65
2022/03/08 08:10:04;;;;;;;18.33;14.40;;;;;;;1.62;100.00;96738.69;5028741;27;102598;-65
2022/03/08 08:12:43;;;;;;;16.43;13.43;;;;;;;1.73;100.00;96747.84;5030990;28;103625;-65
2022/03/08 08:15:10;;;;;;;16.23;12.57;;;;;;;1.80;100.00;96746.13;5032187;28;103001;-65
2022/03/08 08:17:37;;;;;;;19.13;13.87;;;;;;;1.78;100.00;96742.88;5030428;28;105596;-65
2022/03/08 08:20:05;;;;;;;15.33;12.27;;;;;;;1.86;100.00;96751.41;5036146;28;102022;-65
2022/03/08 08:22:32;;;;;;;16.07;12.43;;;;;;;2.14;100.00;96743.59;5031615;28;102590;-65
2022/03/08 08:24:59;;;;;;;14.67;12.00;;;;;;;2.25;95.83;96751.75;5030742;28;101933;-65
2022/03/08 08:27:25;;;;;;;16.33;11.43;;;;;;;2.55;97.00;96747.13;5032214;28;102570;-65
2022/03/08 08:29:54;;;;;;;16.63;11.37;;;;;;;2.70;87.91;96742.59;5030305;28;103842;-65
2022/03/08 08:32:21;;;;;;;12.27;10.17;;;;;;;2.86;85.09;96744.91;5031812;28;101917;-65
2022/03/08 08:34:48;;;;;;;13.27;9.97;;;;;;;2.95;80.06;96749.00;5030808;28;105256;-65
2022/03/08 08:37:17;;;;;;;13.13;10.77;;;;;;;2.97;77.15;96746.97;5031777;28;102481;-64
2022/03/08 08:39:45;;;;;;;11.57;9.90;;;;;;;3.17;75.96;96737.38;5031811;27;101844;-65
2022/03/08 08:42:12;;;;;;;12.43;9.90;;;;;;;3.23;71.55;96736.59;5034266;28;105332;-65
2022/03/08 08:44:38;;;;;;;12.73;9.70;;;;;;;3.45;67.17;96738.88;5031523;28;101776;-65
2022/03/08 08:47:08;;;;;;;11.23;9.00;;;;;;;3.57;65.02;96731.25;5033008;28;102701;-65
2022/03/08 08:49:35;;;;;;;10.13;7.93;;;;;;;3.57;63.67;96733.88;5032031;28;103142;-65
2022/03/08 08:52:02;;;;;;;10.10;8.17;;;;;;;3.57;61.36;96733.88;5031027;28;101928;-65
2022/03/08 08:54:28;;;;;;;16.97;12.03;;;;;;;3.87;62.45;96730.69;5032723;28;102670;-65
2022/03/08 08:56:55;;;;;;;10.30;8.10;;;;;;;4.11;57.16;96724.88;5031214;28;102488;-65
2022/03/08 08:59:23;;;;;;;13.23;10.30;;;;;;;4.31;59.63;96730.13;5032435;28;101732;-65
2022/03/08 09:01:50;;;;;;;11.33;8.63;;;;;;;4.38;55.36;96738.84;5034769;28;102402;-65
2022/03/08 09:04:18;;;;;;;8.03;6.90;;;;;;;4.52;54.19;96732.53;5032619;28;101813;-65
2022/03/08 09:06:46;;;;;;;9.37;7.27;;;;;;;4.68;54.65;96732.09;5032760;28;102378;-65
2022/03/08 09:09:13;;;;;;;8.90;7.73;;;;;;;4.82;52.67;96731.91;5032020;28;103041;-65
2022/03/08 09:11:41;;;;;;;9.43;6.93;;;;;;;4.58;51.67;96729.91;5031377;28;102177;-65
2022/03/08 09:14:09;;;;;;;7.37;6.60;;;;;;;4.85;50.74;96734.09;5032524;27;102340;-65
2022/03/08 09:16:36;;;;;;;7.10;6.40;;;;;;;4.89;51.21;96721.31;5032013;28;102490;-65
2022/03/08 09:19:04;;;;;;;8.00;6.60;;;;;;;5.01;49.48;96725.75;5032468;28;101788;-65
2022/03/08 09:21:32;;;;;;;7.43;6.67;;;;;;;5.00;49.38;96731.22;5032501;27;102328;-65
2022/03/08 09:23:59;;;;;;;10.83;7.20;;;;;;;4.96;50.30;96722.94;5033901;28;102507;-65
2022/03/08 09:26:26;;;;;;;7.40;6.60;;;;;;;5.16;49.31;96721.03;5032306;27;102275;-65
2022/03/08 09:28:54;;;;;;;7.83;6.37;;;;;;;5.22;49.18;96719.38;5031725;27;102660;-65
2022/03/08 09:31:21;;;;;;;10.80;7.90;;;;;;;4.98;47.00;96717.47;5030775;27;101772;-65
2022/03/08 09:33:50;;;;;;;7.60;6.47;;;;;;;5.08;47.50;96717.84;5032034;28;102430;-65
2022/03/08 09:36:17;;;;;;;15.00;7.17;;;;;;;5.10;47.79;96719.25;5030021;28;105787;-65
2022/03/08 09:38:46;;;;;;;7.43;6.10;;;;;;;5.39;46.28;96712.63;5031977;27;102020;-65
2022/03/08 09:41:15;;;;;;;11.43;6.90;;;;;;;5.25;46.77;96724.25;5032353;28;103021;-65
2022/03/08 09:43:42;;;;;;;8.33;6.10;;;;;;;5.70;47.34;96717.94;5031564;27;102737;-65
2022/03/08 09:46:09;;;;;;;7.10;6.07;;;;;;;5.80;46.24;96713.03;5035424;28;101940;-65
2022/03/08 09:48:37;;;;;;;7.70;6.33;;;;;;;5.87;47.04;96712.00;5031550;27;102434;-65
2022/03/08 09:51:05;;;;;;;7.40;6.53;;;;;;;6.02;46.15;96714.31;5030862;27;101923;-65
2022/03/08 09:53:34;;;;;;;7.63;5.50;;;;;;;5.70;43.79;96715.31;5031889;28;102904;-65
2022/03/08 09:56:04;;;;;;;10.13;7.27;;;;;;;5.61;44.00;96719.19;5031188;28;102753;-65
2022/03/08 09:58:32;;;;;;;7.33;6.27;;;;;;;5.98;44.74;96708.66;5031875;27;101824;-65
2022/03/08 10:01:01;;;;;;;7.13;6.27;;;;;;;6.01;44.85;96713.50;5030226;28;104799;-65
2022/03/08 10:03:34;;;;;;;7.57;6.53;;;;;;;5.97;43.51;96708.88;5029798;28;105456;-65
2022/03/08 10:06:01;;;;;;;7.47;5.73;;;;;;;5.67;43.78;96700.72;5029978;28;101887;-65
2022/03/08 10:08:28;;;;;;;6.00;5.40;;;;;;;6.14;44.09;96694.13;5032817;28;105580;-65
2022/03/08 10:10:58;;;;;;;7.77;6.67;;;;;;;6.30;44.01;96690.94;5030201;28;101688;-65
2022/03/08 10:13:29;;;;;;;6.67;5.43;;;;;;;6.34;44.74;96692.13;5031357;28;102889;-65
2022/03/08 10:16:15;;;;;;;7.50;6.20;;;;;;;6.57;44.47;96681.75;5029273;28;103136;-65
2022/03/08 10:18:45;;;;;;;5.83;5.23;;;;;;;6.35;43.44;96686.66;5030035;28;101860;-65
2022/03/08 10:21:30;;;;;;;8.17;6.40;;;;;;;6.62;42.52;96684.56;5029775;28;104922;-65
2022/03/08 10:23:59;;;;;;;7.37;5.37;;;;;;;6.90;43.47;96688.34;5029289;28;105716;-65
2022/03/08 10:26:26;;;;;;;6.90;6.20;;;;;;;6.99;42.04;96691.50;5030021;28;101931;-65
2022/03/08 10:28:56;;;;;;;7.27;5.93;;;;;;;7.07;41.66;96684.06;5029532;28;105417;-65
2022/03/08 10:31:24;;;;;;;5.83;5.23;;;;;;;6.93;41.30;96689.72;5033701;28;102438;-65
2022/03/08 10:33:52;;;;;;;7.17;5.87;;;;;;;7.09;40.47;96684.66;5029542;27;104072;-65
2022/03/08 10:36:21;;;;;;;8.13;5.60;;;;;;;7.13;39.90;96687.66;5029186;28;105374;-65
2022/03/08 10:39:10;;;;;;;6.63;5.57;;;;;;;7.27;40.54;96689.94;5029645;28;101829;-65
2022/03/08 10:41:47;;;;;;;9.13;6.30;;;;;;;7.53;40.00;96694.88;5063892;27;105260;-65
2022/03/08 10:44:17;;;;;;;6.53;5.13;;;;;;;7.59;39.36;96687.91;5029396;28;102257;-65
2022/03/08 10:46:59;;;;;;;8.27;5.60;;;;;;;7.74;39.58;96688.31;5029708;28;101888;-65
2022/03/08 10:49:27;;;;;;;8.13;5.67;;;;;;;7.73;39.24;96679.53;5029427;28;105116;-65
2022/03/08 10:52:00;;;;;;;8.83;4.77;;;;;;;7.80;40.21;96682.09;5028916;28;105448;-65
2022/03/08 10:54:30;;;;;;;6.07;5.20;;;;;;;7.88;38.07;96679.13;5033130;28;101697;-65
2022/03/08 10:56:57;;;;;;;6.57;4.70;;;;;;;7.76;38.05;96673.00;5030241;28;103224;-65
2022/03/08 10:59:26;;;;;;;6.97;5.80;;;;;;;7.92;38.24;96677.66;5029391;28;101823;-65
2022/03/08 11:01:53;;;;;;;6.17;4.90;;;;;;;7.89;37.58;96675.44;5029459;28;104868;-65
2022/03/08 11:04:22;;;;;;;8.83;6.80;;;;;;;8.22;37.44;96678.41;5028467;28;105725;-65
2022/03/08 11:06:52;;;;;;;6.17;5.33;;;;;;;7.90;38.16;96682.38;5029311;28;101978;-65
2022/03/08 11:09:20;;;;;;;5.80;5.30;;;;;;;7.97;38.12;96675.13;5029353;28;105182;-65
2022/03/08 11:11:47;;;;;;;12.17;5.90;;;;;;;7.91;38.52;96668.09;5028608;28;105606;-65
2022/03/08 11:14:14;;;;;;;6.10;5.20;;;;;;;8.37;37.46;96670.84;5033622;28;101715;-65
2022/03/08 11:16:47;;;;;;;6.50;5.80;;;;;;;8.17;37.91;96671.13;5028071;28;105774;-65
2022/03/08 11:19:16;;;;;;;6.27;5.67;;;;;;;7.88;39.87;96661.41;5028776;28;101840;-65
2022/03/08 11:21:45;;;;;;;7.83;6.20;;;;;;;8.17;39.58;96657.06;5029155;28;105073;-65
2022/03/08 11:24:13;;;;;;;6.77;5.50;;;;;;;8.16;38.12;96663.41;5028488;28;105453;-65
2022/03/08 11:26:43;;;;;;;6.70;6.00;;;;;;;8.11;37.33;96661.44;5062922;27;101842;-65
2022/03/08 11:29:13;;;;;;;11.03;7.50;;;;;;;8.52;36.96;96660.59;5028863;28;105337;-65
2022/03/08 11:31:43;;;;;;;9.00;7.13;;;;;;;8.69;35.50;96656.19;5028012;28;106009;-65
2022/03/08 11:34:18;;;;;;;8.37;6.73;;;;;;;8.71;36.25;96652.28;5028967;28;101854;-65